SMAF07 TIST-KSAT
Flight info
| Callsign | SMAF07 |
|---|---|
| Flight time | N/A |
| Altitude | 35000 |
| Route | TIST PALCO RTE6 BEANO Y290 GAWKS Q102 LEV J86 PEKON Q56 MOLLR KSAT |
| Aircraft | B747/H-VGDW/C |
Departure
| Time | 2026-05-08 14:37 |
|---|---|
| Airport | Cyril E. King Airport (TIST) |
Arrival
| Time | N/A |
|---|---|
| Airport | San Antonio International Airport (KSAT) |
| Time | Latitude | Longitude | Altitude | Speed | Heading |
|---|---|---|---|---|---|
| 2026-05-08 14:22 | 18.33574 | -64.97207 | 94 ft | 0 kts | 178° |
| 2026-05-08 14:25 | 18.33580 | -64.97207 | 97 ft | 3 kts | 178° |
| 2026-05-08 14:26 | 18.33605 | -64.97207 | 95 ft | 3 kts | 197° |
| 2026-05-08 14:26 | 18.33625 | -64.97199 | 92 ft | 2 kts | 224° |
| 2026-05-08 14:26 | 18.33630 | -64.97193 | 93 ft | 1 kts | 230° |
| 2026-05-08 14:26 | 18.33623 | -64.97211 | 94 ft | 3 kts | 257° |
| 2026-05-08 14:27 | 18.33626 | -64.97227 | 94 ft | 3 kts | 283° |
| 2026-05-08 14:27 | 18.33635 | -64.97269 | 96 ft | 9 kts | 283° |
| 2026-05-08 14:27 | 18.33651 | -64.97348 | 95 ft | 11 kts | 274° |
| 2026-05-08 14:27 | 18.33644 | -64.97373 | 96 ft | 0 kts | 250° |
| 2026-05-08 14:28 | 18.33643 | -64.97376 | 96 ft | 2 kts | 250° |
| 2026-05-08 14:28 | 18.33629 | -64.97422 | 96 ft | 11 kts | 253° |
| 2026-05-08 14:28 | 18.33617 | -64.97517 | 96 ft | 17 kts | 265° |
| 2026-05-08 14:29 | 18.33606 | -64.97668 | 93 ft | 24 kts | 266° |
| 2026-05-08 14:29 | 18.33596 | -64.97874 | 93 ft | 30 kts | 267° |
| 2026-05-08 14:29 | 18.33589 | -64.98089 | 93 ft | 28 kts | 268° |
| 2026-05-08 14:29 | 18.33579 | -64.98265 | 95 ft | 11 kts | 266° |
| 2026-05-08 14:30 | 18.33597 | -64.98316 | 94 ft | 4 kts | 313° |
| 2026-05-08 14:30 | 18.33613 | -64.98326 | 94 ft | 3 kts | 339° |
| 2026-05-08 14:30 | 18.33659 | -64.98329 | 95 ft | 8 kts | 6° |
| 2026-05-08 14:30 | 18.33687 | -64.98297 | 94 ft | 4 kts | 78° |
| 2026-05-08 14:31 | 18.33687 | -64.98292 | 96 ft | 0 kts | 85° |
| 2026-05-08 14:32 | 18.33700 | -64.98122 | 95 ft | 60 kts | 85° |
| 2026-05-08 14:32 | 18.33728 | -64.97419 | 96 ft | 130 kts | 88° |
| 2026-05-08 14:32 | 18.33780 | -64.96250 | 102 ft | 187 kts | 86° |
| 2026-05-08 14:32 | 18.33907 | -64.94808 | 278 ft | 212 kts | 84° |
| 2026-05-08 14:33 | 18.34082 | -64.93386 | 67 ft | 0 kts | 85° |
| 2026-05-08 14:33 | 18.33574 | -64.97207 | 93 ft | 0 kts | 178° |
| 2026-05-08 14:33 | 18.33681 | -64.98400 | 87 ft | 0 kts | 94° |
| 2026-05-08 14:34 | 18.33679 | -64.98309 | 94 ft | 0 kts | 60° |
| 2026-05-08 14:36 | 18.33679 | -64.98308 | 94 ft | 1 kts | 60° |
| 2026-05-08 14:36 | 18.33703 | -64.98067 | 94 ft | 71 kts | 88° |
| 2026-05-08 14:36 | 18.33727 | -64.97284 | 95 ft | 141 kts | 88° |
| 2026-05-08 14:37 | 18.33768 | -64.96029 | 153 ft | 194 kts | 88° |
| 2026-05-08 14:37 | 18.33888 | -64.94555 | 656 ft | 210 kts | 84° |
| 2026-05-08 14:37 | 18.34111 | -64.92985 | 1245 ft | 221 kts | 82° |
| 2026-05-08 14:37 | 18.34158 | -64.91338 | 1840 ft | 237 kts | 100° |
| 2026-05-08 14:38 | 18.33431 | -64.89695 | 1787 ft | 261 kts | 128° |
| 2026-05-08 14:38 | 18.32651 | -64.88932 | 1679 ft | 263 kts | 145° |